This is the latest recevied weather packets stored in our database for station/object AB8Y-13. If no packets are shown the sender has not sent any weather packets the latest 10 day(s).
| Time | Temp. | Humidity | Pressure | Rain* | Wind** | Luminosity | Snow |
|---|---|---|---|---|---|---|---|
| 1777066943 | 17.78° C | 94% | 1006.2 hPa | 10.67 mm | - | 21 W/m² | - |
| 1777066638 | 17.78° C | 94% | 1006.5 hPa | 6.6 mm | - | 17 W/m² | - |
| 1777066335 | 17.78° C | 94% | 1006.5 hPa | 4.83 mm | - | 19 W/m² | - |
| 1777066029 | 17.78° C | 94% | 1006.6 hPa | 4.32 mm | - | 17 W/m² | - |
| 1777065724 | 17.78° C | 94% | 1006.4 hPa | 4.32 mm | - | 16 W/m² | - |
| 1777065420 | 17.78° C | 93% | 1006.1 hPa | 4.83 mm | - | 14 W/m² | - |
| 1777065114 | 17.78° C | 93% | 1006.2 hPa | 3.05 mm | - | 18 W/m² | - |
| 1777064812 | 17.22° C | 93% | 1006 hPa | 4.32 mm | - | 19 W/m² | - |
| 1777064508 | 17.22° C | 92% | 1006.1 hPa | 12.7 mm | - | 19 W/m² | - |
| 1777064205 | 17.22° C | 91% | 1006.2 hPa | 13.72 mm | - | 19 W/m² | - |
| 1777063900 | 17.22° C | 91% | 1006.3 hPa | 6.1 mm | - | 13 W/m² | - |
| 1777063594 | 17.22° C | 90% | 1006 hPa | 0 mm | - | 18 W/m² | - |
| 1777063290 | 17.22° C | 90% | 1005.7 hPa | 0 mm | - | 14 W/m² | - |
| 1777062987 | 17.22° C | 90% | 1005.1 hPa | 0 mm | - | 49 W/m² | - |
| 1777062685 | 17.22° C | 89% | 1005.1 hPa | 7.87 mm | - | 36 W/m² | - |
| 1777062382 | 17.78° C | 88% | 1004.9 hPa | 21.59 mm | - | 84 W/m² | - |
| 1777062080 | 18.33° C | 86% | 1005.4 hPa | 21.59 mm | - | 29 W/m² | - |
| 1777061776 | 18.89° C | 84% | 1005.2 hPa | 34.8 mm | - | 23 W/m² | - |
| 1777061472 | 21.67° C | 78% | 1005 hPa | 26.92 mm | - | 19 W/m² | - |
| 1777061169 | 26.11° C | 49% | 1004.5 hPa | 0 mm | - | 16 W/m² | - |
| 1777060863 | 26.67° C | 47% | 1003.6 hPa | 0 mm | - | 35 W/m² | - |
| 1777060558 | 26.67° C | 49% | 1003.6 hPa | 0 mm | - | 112 W/m² | - |
| 1777060255 | 27.22° C | 47% | 1003.7 hPa | 0 mm | - | 244 W/m² | - |
| 1777059950 | 26.67° C | 47% | 1003.5 hPa | 0 mm | - | 547 W/m² | - |
| 1777059646 | 26.67° C | 48% | 1003.7 hPa | 0 mm | - | 377 W/m² | - |
* Rain latest hour (hover to see other rain measurements)
** Current wind speed in m/s (hover to see current wind gust speed)